Terminal Aerodrome Forecast
Issued by NWS Wilmington, OH

Current Version | Previous Version | Graphics & Text | Print | Product List | Glossary On
Versions: 1 2 3 4 5 6 7 8 9 10 11 12 13 14 15 16 17 18 19
000
FTUS41 KILN 241130
TAFILN
TAF
KILN 241130Z 2412/2512 18012G20KT P6SM SCT035
     FM241600 19018G28KT P6SM SCT040
     FM250100 19012G20KT 5SM -SHRA VCTS SCT035CB OVC050
     FM250700 24012G19KT P6SM OVC025=

USA.gov is the U.S. government's official web portal to all federal, state and local government web resources and services.